createdAt,value
2019-02-19T00:00:57.778Z,65.40
2019-02-19T00:03:27.620Z,64.50
2019-02-19T00:05:57.908Z,64.60
2019-02-19T00:08:27.730Z,64.50
2019-02-19T00:10:57.654Z,64.70
2019-02-19T00:13:27.551Z,64.70
2019-02-19T00:15:57.405Z,65.10
2019-02-19T00:18:27.297Z,65.00
2019-02-19T00:20:57.116Z,65.40
2019-02-19T00:23:26.949Z,66.00
2019-02-19T00:25:56.796Z,65.50
2019-02-19T00:28:26.830Z,65.70
2019-02-19T00:30:56.637Z,65.90
2019-02-19T00:33:26.413Z,66.30
2019-02-19T00:35:56.304Z,66.20
2019-02-19T00:38:26.128Z,66.40
2019-02-19T00:40:55.981Z,66.40
2019-02-19T00:43:28.821Z,66.60
2019-02-19T00:45:58.693Z,66.60
2019-02-19T00:48:28.502Z,66.60
2019-02-19T00:50:58.374Z,66.50
2019-02-19T00:53:28.292Z,66.30
2019-02-19T00:55:58.119Z,66.30
2019-02-19T00:58:27.889Z,67.00
2019-02-19T01:00:57.658Z,66.90
2019-02-19T01:03:27.739Z,66.80
2019-02-19T01:05:57.565Z,67.30
2019-02-19T01:08:27.364Z,67.10
2019-02-19T01:10:57.189Z,67.30
2019-02-19T01:13:26.975Z,67.20
2019-02-19T01:15:56.732Z,67.00
2019-02-19T01:18:27.517Z,67.40
2019-02-19T01:20:57.330Z,67.60
2019-02-19T01:23:27.150Z,67.60
2019-02-19T01:25:56.957Z,67.40
2019-02-19T01:28:26.757Z,67.50
2019-02-19T01:30:56.553Z,67.90
2019-02-19T01:33:26.377Z,67.60
2019-02-19T01:35:56.269Z,67.60
2019-02-19T01:38:26.958Z,67.60
2019-02-19T01:40:56.755Z,67.60
2019-02-19T01:43:26.562Z,67.50
2019-02-19T01:45:56.341Z,67.50
2019-02-19T01:48:26.137Z,67.60
2019-02-19T01:50:56.189Z,67.70
2019-02-19T01:53:25.948Z,67.80
2019-02-19T01:55:55.722Z,67.60
2019-02-19T01:58:25.705Z,67.90
2019-02-19T02:00:56.516Z,68.00
2019-02-19T02:03:26.405Z,68.00
2019-02-19T02:05:56.219Z,68.00
2019-02-19T02:08:26.124Z,67.70
2019-02-19T02:10:55.940Z,67.70
2019-02-19T02:13:25.797Z,67.60
2019-02-19T02:15:55.565Z,67.60
2019-02-19T02:18:25.440Z,67.50
2019-02-19T02:20:55.262Z,67.70
2019-02-19T02:23:25.190Z,68.00
2019-02-19T02:25:54.950Z,68.20
2019-02-19T02:28:24.794Z,68.00
2019-02-19T02:30:54.614Z,68.60
2019-02-19T02:33:24.506Z,68.40
2019-02-19T02:35:54.412Z,68.60
2019-02-19T02:38:24.335Z,68.90
2019-02-19T02:40:55.133Z,68.90
2019-02-19T02:43:25.080Z,68.90
2019-02-19T02:45:55.563Z,68.80
2019-02-19T02:48:25.329Z,68.90
2019-02-19T02:50:56.116Z,69.20
2019-02-19T02:53:26.765Z,69.10
2019-02-19T02:55:56.584Z,69.00
2019-02-19T02:58:26.430Z,69.00
2019-02-19T03:00:56.510Z,68.90
2019-02-19T03:03:26.328Z,69.10
2019-02-19T03:06:01.936Z,69.30
2019-02-19T03:08:31.693Z,69.10
2019-02-19T03:11:01.493Z,69.00
2019-02-19T03:13:31.395Z,68.80
2019-02-19T03:16:02.641Z,68.90
2019-02-19T03:18:32.617Z,68.80
2019-02-19T03:21:02.430Z,69.10
2019-02-19T03:23:32.238Z,68.90
2019-02-19T03:26:03.115Z,68.80
2019-02-19T03:28:32.962Z,68.60
2019-02-19T03:31:03.129Z,68.60
2019-02-19T03:33:33.006Z,68.60
2019-02-19T03:36:02.819Z,68.50
2019-02-19T03:38:32.810Z,68.80
2019-02-19T03:41:02.578Z,68.90
2019-02-19T03:43:32.381Z,68.60
2019-02-19T03:46:11.444Z,68.80
2019-02-19T03:48:33.658Z,69.00
2019-02-19T03:51:03.538Z,69.10
2019-02-19T03:53:33.427Z,69.10
2019-02-19T03:56:03.232Z,69.30
2019-02-19T03:58:33.254Z,69.40
2019-02-19T04:01:03.338Z,69.30
2019-02-19T04:03:33.109Z,69.20
2019-02-19T04:06:03.065Z,69.40
2019-02-19T04:08:32.888Z,69.50
2019-02-19T04:11:02.655Z,69.60
2019-02-19T04:13:32.461Z,69.90
2019-02-19T04:16:02.380Z,70.30
2019-02-19T04:18:32.154Z,70.20
2019-02-19T04:21:01.957Z,70.10
2019-02-19T04:23:31.944Z,69.90
2019-02-19T04:26:01.785Z,69.90
2019-02-19T04:28:31.604Z,70.20
2019-02-19T04:31:01.409Z,70.30
2019-02-19T04:33:31.185Z,70.50
2019-02-19T04:36:01.026Z,70.50
2019-02-19T04:38:30.915Z,70.40
2019-02-19T04:41:00.698Z,70.50
2019-02-19T04:43:30.508Z,70.40
2019-02-19T04:46:00.397Z,70.60
2019-02-19T04:48:31.988Z,70.70
2019-02-19T04:51:01.893Z,70.80
2019-02-19T04:53:31.673Z,70.80
2019-02-19T04:56:01.437Z,70.80
2019-02-19T04:58:31.309Z,70.90
2019-02-19T05:01:01.097Z,70.80
2019-02-19T05:03:31.071Z,71.00
2019-02-19T05:06:00.887Z,71.00
2019-02-19T05:08:30.703Z,71.00
2019-02-19T05:11:00.675Z,71.00
2019-02-19T05:13:30.568Z,70.90
2019-02-19T05:16:00.414Z,70.90
2019-02-19T05:18:30.323Z,71.10
2019-02-19T05:21:00.633Z,71.00
2019-02-19T05:23:30.448Z,70.90
2019-02-19T05:26:01.326Z,71.20
2019-02-19T05:28:31.235Z,71.00
2019-02-19T05:31:01.234Z,71.00
2019-02-19T05:33:31.041Z,71.20
2019-02-19T05:36:00.863Z,71.40
2019-02-19T05:38:30.777Z,71.70
2019-02-19T05:41:00.600Z,71.50
2019-02-19T05:43:30.398Z,71.40
2019-02-19T05:46:00.249Z,71.60
2019-02-19T05:48:30.205Z,72.40
2019-02-19T05:51:00.014Z,72.70
2019-02-19T05:53:29.834Z,72.70
2019-02-19T05:56:00.500Z,72.80
2019-02-19T05:58:30.340Z,73.00
2019-02-19T06:01:00.169Z,73.00
2019-02-19T06:03:30.266Z,72.90
2019-02-19T06:06:00.178Z,72.90
2019-02-19T06:08:29.985Z,72.70
2019-02-19T06:10:59.766Z,72.50
2019-02-19T06:13:29.624Z,72.80
2019-02-19T06:15:59.429Z,73.20
2019-02-19T06:18:29.394Z,73.10
2019-02-19T06:20:59.240Z,72.90
2019-02-19T06:23:29.082Z,72.90
2019-02-19T06:25:58.980Z,73.00
2019-02-19T06:28:29.227Z,73.30
2019-02-19T06:30:59.386Z,73.20
2019-02-19T06:33:29.233Z,73.10
2019-02-19T06:35:59.042Z,73.20
2019-02-19T06:38:28.858Z,73.30
2019-02-19T06:40:58.692Z,73.10
2019-02-19T06:43:28.512Z,72.90
2019-02-19T06:45:58.361Z,73.10
2019-02-19T06:48:28.271Z,73.00
2019-02-19T06:50:58.219Z,73.10
2019-02-19T06:53:28.061Z,73.00
2019-02-19T06:55:57.901Z,73.00
2019-02-19T06:58:27.885Z,73.00
2019-02-19T07:00:57.842Z,73.10
2019-02-19T07:03:32.112Z,72.90
2019-02-19T07:06:01.989Z,73.00
2019-02-19T07:08:31.837Z,73.00
2019-02-19T07:11:01.798Z,73.00
2019-02-19T07:13:31.662Z,72.90
2019-02-19T07:16:01.650Z,72.80
2019-02-19T07:18:31.459Z,72.90
2019-02-19T07:21:01.318Z,72.80
2019-02-19T07:23:31.336Z,72.90
2019-02-19T07:26:01.142Z,73.20
2019-02-19T07:28:31.036Z,73.70
2019-02-19T07:31:00.856Z,73.80
2019-02-19T07:33:30.693Z,73.40
2019-02-19T07:36:00.601Z,72.50
2019-02-19T07:38:30.428Z,70.70
2019-02-19T07:41:00.284Z,68.90
2019-02-19T07:43:30.267Z,67.20
2019-02-19T07:46:00.283Z,65.40
2019-02-19T07:48:30.249Z,63.60
2019-02-19T07:51:00.353Z,62.00
2019-02-19T07:53:30.971Z,59.90
2019-02-19T07:56:00.790Z,58.90
2019-02-19T07:58:30.725Z,57.90
2019-02-19T08:01:01.253Z,57.00
2019-02-19T08:03:31.081Z,55.50
2019-02-19T08:06:01.139Z,54.70
2019-02-19T08:08:31.143Z,54.20
2019-02-19T08:11:01.746Z,53.20
2019-02-19T08:13:31.569Z,52.90
2019-02-19T08:16:01.397Z,52.40
2019-02-19T08:18:31.296Z,52.10
2019-02-19T08:21:01.134Z,51.90
2019-02-19T08:23:31.718Z,52.00
2019-02-19T08:26:01.537Z,51.90
2019-02-19T08:28:31.421Z,52.00
2019-02-19T08:31:01.260Z,51.40
2019-02-19T08:33:31.145Z,50.50
2019-02-19T08:36:01.149Z,50.00
2019-02-19T08:38:30.974Z,49.50
2019-02-19T08:41:00.890Z,49.00
2019-02-19T08:43:31.071Z,48.50
2019-02-19T08:46:00.872Z,47.90
2019-02-19T08:48:30.759Z,47.20
2019-02-19T08:51:00.753Z,47.00
2019-02-19T08:53:31.434Z,46.60
2019-02-19T08:56:01.333Z,46.60
2019-02-19T08:58:31.242Z,46.50
2019-02-19T09:01:01.156Z,46.80
2019-02-19T09:03:31.235Z,47.00
2019-02-19T09:06:01.142Z,47.30
2019-02-19T09:08:30.986Z,47.40
2019-02-19T09:11:00.918Z,47.20
2019-02-19T09:13:31.521Z,47.30
2019-02-19T09:16:01.326Z,47.30
2019-02-19T09:18:31.242Z,47.50
2019-02-19T09:21:01.152Z,47.80
2019-02-19T09:23:31.373Z,47.60
2019-02-19T09:26:01.194Z,47.50
2019-02-19T09:28:31.045Z,47.40
2019-02-19T09:31:00.937Z,47.40
2019-02-19T09:33:31.049Z,47.60
2019-02-19T09:36:01.871Z,47.80
2019-02-19T09:38:31.757Z,47.90
2019-02-19T09:41:01.558Z,48.20
2019-02-19T09:43:35.561Z,48.40
2019-02-19T09:46:03.036Z,48.80
2019-02-19T09:48:32.855Z,49.10
2019-02-19T09:51:02.830Z,49.40
2019-02-19T09:53:32.658Z,49.70
2019-02-19T09:56:02.600Z,50.00
2019-02-19T09:58:32.640Z,50.20
2019-02-19T10:01:02.483Z,50.50
2019-02-19T10:03:32.410Z,50.80
2019-02-19T10:06:02.340Z,51.10
2019-02-19T10:08:32.148Z,51.10
2019-02-19T10:11:02.005Z,51.40
2019-02-19T10:13:32.042Z,51.60
2019-02-19T10:16:01.969Z,51.60
2019-02-19T10:18:31.784Z,51.50
2019-02-19T10:21:01.610Z,51.60
2019-02-19T10:23:31.462Z,51.70
2019-02-19T10:26:01.278Z,51.80
2019-02-19T10:28:31.566Z,51.80
2019-02-19T10:31:01.378Z,51.70
2019-02-19T10:33:31.924Z,51.90
2019-02-19T10:36:01.768Z,51.70
2019-02-19T10:38:31.690Z,51.90
2019-02-19T10:41:01.585Z,51.80
2019-02-19T10:43:31.425Z,52.00
2019-02-19T10:46:01.657Z,52.10
2019-02-19T10:48:31.633Z,51.90
2019-02-19T10:51:01.474Z,52.00
2019-02-19T10:53:31.470Z,52.20
2019-02-19T10:56:01.281Z,52.00
2019-02-19T10:58:31.196Z,51.30
2019-02-19T11:01:01.185Z,51.20
2019-02-19T11:03:31.065Z,51.20
2019-02-19T11:06:00.948Z,50.90
2019-02-19T11:08:31.455Z,50.70
2019-02-19T11:11:01.310Z,50.80
2019-02-19T11:13:31.395Z,50.90
2019-02-19T11:16:02.954Z,50.80
2019-02-19T11:18:33.519Z,50.70
2019-02-19T11:21:03.622Z,50.60
2019-02-19T11:23:33.812Z,50.40
2019-02-19T11:26:03.985Z,50.40
2019-02-19T11:28:34.645Z,50.20
2019-02-19T11:31:04.489Z,50.10
2019-02-19T11:33:34.427Z,50.00
2019-02-19T11:36:04.337Z,50.20
2019-02-19T11:38:34.346Z,50.20
2019-02-19T11:41:04.430Z,50.30
2019-02-19T11:43:34.249Z,50.20
2019-02-19T11:46:04.388Z,50.30
2019-02-19T11:48:37.031Z,50.40
2019-02-19T11:51:05.741Z,50.40
2019-02-19T11:53:35.553Z,50.50
2019-02-19T11:56:06.343Z,50.50
2019-02-19T11:58:36.349Z,50.40
2019-02-19T12:01:06.650Z,50.50
2019-02-19T12:03:36.632Z,50.50
2019-02-19T12:06:06.457Z,50.70
2019-02-19T12:08:38.958Z,50.80
2019-02-19T12:11:07.911Z,50.70
2019-02-19T12:13:37.732Z,50.90
2019-02-19T12:16:07.826Z,50.50
2019-02-19T12:18:45.600Z,50.40
2019-02-19T12:21:10.603Z,50.50
2019-02-19T12:23:40.757Z,50.60
2019-02-19T12:26:10.613Z,50.60
2019-02-19T12:28:40.514Z,50.60
2019-02-19T12:31:10.486Z,50.50
2019-02-19T12:33:41.054Z,50.50
2019-02-19T12:36:10.865Z,50.60
2019-02-19T12:38:40.766Z,50.70
2019-02-19T12:41:10.615Z,50.60
2019-02-19T12:43:41.470Z,50.70
2019-02-19T12:46:11.295Z,50.80
2019-02-19T12:48:41.210Z,50.70
2019-02-19T12:51:11.024Z,50.90
2019-02-19T12:53:40.997Z,51.00
2019-02-19T12:56:11.007Z,51.30
2019-02-19T12:58:42.072Z,51.30
2019-02-19T13:01:12.861Z,51.30
2019-02-19T13:03:42.769Z,51.30
2019-02-19T13:06:12.634Z,51.40
2019-02-19T13:08:43.346Z,51.50
2019-02-19T13:11:13.177Z,51.50
2019-02-19T13:13:43.685Z,51.70
2019-02-19T13:16:13.534Z,51.80
2019-02-19T13:18:43.341Z,51.90
2019-02-19T13:21:13.194Z,52.10
2019-02-19T13:23:42.986Z,52.10
2019-02-19T13:26:12.866Z,52.10
2019-02-19T13:28:42.799Z,52.50
2019-02-19T13:31:12.669Z,52.40
2019-02-19T13:33:42.654Z,52.60
2019-02-19T13:36:12.652Z,52.90
2019-02-19T13:38:42.529Z,53.20
2019-02-19T13:41:12.517Z,53.60
2019-02-19T13:43:42.421Z,54.20
2019-02-19T13:46:12.274Z,54.40
2019-02-19T13:48:42.986Z,54.80
2019-02-19T13:51:12.801Z,55.30
2019-02-19T13:53:44.276Z,55.70
2019-02-19T13:56:14.324Z,56.00
2019-02-19T13:58:44.443Z,56.20
2019-02-19T14:01:14.290Z,56.70
2019-02-19T14:03:44.202Z,57.30
2019-02-19T14:06:14.866Z,57.10
2019-02-19T14:08:44.789Z,57.30
2019-02-19T14:11:14.602Z,57.30
2019-02-19T14:13:46.141Z,57.30
2019-02-19T14:16:17.714Z,57.50
2019-02-19T14:18:49.189Z,57.60
2019-02-19T14:21:38.049Z,57.80
2019-02-19T14:24:15.527Z,58.00
2019-02-19T14:27:03.126Z,58.10
2019-02-19T14:29:40.516Z,58.30
2019-02-19T14:32:17.946Z,58.20
2019-02-19T14:34:55.003Z,58.30
2019-02-19T14:37:26.437Z,58.50
2019-02-19T14:40:10.065Z,58.70
2019-02-19T14:42:52.779Z,58.70
2019-02-19T14:45:33.064Z,58.80
2019-02-19T14:48:07.020Z,58.70
2019-02-19T14:50:46.946Z,58.70
2019-02-19T14:53:18.485Z,58.90
2019-02-19T14:55:52.474Z,58.90
2019-02-19T14:58:26.921Z,59.00
2019-02-19T15:01:14.680Z,59.00
2019-02-19T15:04:02.428Z,59.00
2019-02-19T15:06:33.877Z,58.90
2019-02-19T15:09:08.871Z,59.10
2019-02-19T15:11:55.561Z,59.30
2019-02-19T15:14:39.909Z,59.40
2019-02-19T15:17:14.167Z,59.90
2019-02-19T15:19:54.335Z,59.30
2019-02-19T15:22:28.362Z,59.40
2019-02-19T15:25:06.185Z,59.40
2019-02-19T15:27:37.765Z,59.60
2019-02-19T15:30:19.234Z,59.60
2019-02-19T15:32:50.707Z,59.70
2019-02-19T15:35:38.202Z,59.70
2019-02-19T15:38:18.903Z,59.70
2019-02-19T15:41:08.186Z,59.80
2019-02-19T15:43:39.665Z,59.70
2019-02-19T15:46:26.233Z,59.90
2019-02-19T15:49:14.046Z,59.80
2019-02-19T15:51:51.268Z,59.80
2019-02-19T15:54:22.761Z,59.90
2019-02-19T15:57:03.410Z,59.80
2019-02-19T15:59:37.498Z,59.90
2019-02-19T16:02:17.761Z,59.70
2019-02-19T16:04:50.013Z,59.70
2019-02-19T16:07:21.674Z,59.80
2019-02-19T16:09:53.311Z,59.80
2019-02-19T16:12:24.925Z,59.70
2019-02-19T16:15:02.270Z,59.90
2019-02-19T16:17:45.471Z,59.80
2019-02-19T16:20:25.702Z,59.90
2019-02-19T16:22:57.224Z,59.80
2019-02-19T16:25:40.832Z,59.90
2019-02-19T16:28:15.169Z,60.10
2019-02-19T16:31:03.126Z,60.20
2019-02-19T16:33:52.594Z,60.10
2019-02-19T16:36:32.849Z,59.90
2019-02-19T16:39:04.350Z,60.00
2019-02-19T16:41:42.633Z,60.30
2019-02-19T16:44:17.184Z,60.20
2019-02-19T16:46:57.217Z,60.40
2019-02-19T16:49:28.820Z,60.40
2019-02-19T16:52:09.724Z,60.30
2019-02-19T16:54:44.070Z,60.50
2019-02-19T16:57:15.573Z,60.50
2019-02-19T17:00:03.007Z,60.40
2019-02-19T17:02:43.630Z,60.40
2019-02-19T17:05:15.235Z,60.30
2019-02-19T17:07:58.385Z,60.30
2019-02-19T17:10:30.075Z,60.40
2019-02-19T17:13:07.398Z,60.80
2019-02-19T17:15:55.273Z,60.80
2019-02-19T17:18:44.854Z,60.80
2019-02-19T17:21:16.366Z,60.90
2019-02-19T17:23:47.910Z,61.10
2019-02-19T17:26:19.549Z,61.20
2019-02-19T17:28:59.767Z,61.20
2019-02-19T17:31:31.409Z,61.40
2019-02-19T17:34:05.567Z,61.20
2019-02-19T17:36:39.888Z,61.90
2019-02-19T17:39:14.153Z,61.60
2019-02-19T17:41:48.363Z,61.60
2019-02-19T17:44:22.398Z,61.60
2019-02-19T17:46:57.089Z,61.50
2019-02-19T17:49:28.629Z,61.50
2019-02-19T17:52:14.896Z,61.70
2019-02-19T17:54:46.347Z,61.90
2019-02-19T17:57:30.094Z,61.90
2019-02-19T18:00:07.197Z,62.10
2019-02-19T18:02:44.241Z,62.20
2019-02-19T18:05:21.768Z,61.90
2019-02-19T18:07:53.215Z,61.80
2019-02-19T18:10:41.715Z,61.90
2019-02-19T18:13:13.138Z,62.00
2019-02-19T18:15:57.615Z,61.60
2019-02-19T18:18:29.834Z,61.60
2019-02-19T18:20:59.653Z,61.60
2019-02-19T18:23:29.529Z,61.90
2019-02-19T18:25:59.298Z,62.10
2019-02-19T18:28:29.061Z,62.40
2019-02-19T18:30:59.014Z,62.60
2019-02-19T18:33:29.903Z,63.10
2019-02-19T18:36:01.017Z,62.90
2019-02-19T18:38:32.621Z,63.70
2019-02-19T18:41:03.987Z,63.60
2019-02-19T18:43:33.882Z,64.30
2019-02-19T18:46:03.714Z,64.50
2019-02-19T18:48:33.553Z,64.80
2019-02-19T18:51:04.181Z,66.00
2019-02-19T18:53:33.994Z,65.30
2019-02-19T18:56:04.643Z,65.80
2019-02-19T18:58:34.470Z,66.00
2019-02-19T19:01:04.288Z,66.30
2019-02-19T19:03:34.057Z,67.30
2019-02-19T19:06:03.885Z,66.50
2019-02-19T19:08:33.947Z,66.70
2019-02-19T19:11:03.802Z,66.50
2019-02-19T19:13:33.618Z,66.20
2019-02-19T19:16:03.412Z,67.30
2019-02-19T19:18:33.279Z,66.40
2019-02-19T19:21:07.858Z,66.60
2019-02-19T19:23:34.704Z,67.00
2019-02-19T19:26:04.649Z,67.40
2019-02-19T19:28:34.469Z,67.30
2019-02-19T19:31:04.382Z,67.80
2019-02-19T19:33:34.147Z,67.90
2019-02-19T19:36:04.238Z,68.00
2019-02-19T19:38:34.226Z,68.10
2019-02-19T19:41:04.110Z,68.00
2019-02-19T19:43:33.937Z,68.30
2019-02-19T19:46:03.861Z,68.50
2019-02-19T19:48:33.763Z,68.30
2019-02-19T19:51:03.574Z,68.60
2019-02-19T19:53:33.354Z,68.60
2019-02-19T19:56:03.241Z,68.70
2019-02-19T19:58:33.053Z,68.90
2019-02-19T20:01:02.863Z,69.00
2019-02-19T20:03:32.962Z,69.10
2019-02-19T20:06:02.775Z,69.40
2019-02-19T20:08:32.748Z,69.70
2019-02-19T20:11:02.655Z,70.20
2019-02-19T20:13:32.507Z,69.30
2019-02-19T20:16:02.354Z,69.20
2019-02-19T20:18:38.960Z,69.20
2019-02-19T20:21:04.532Z,69.50
2019-02-19T20:23:34.297Z,69.20
2019-02-19T20:26:04.234Z,69.10
2019-02-19T20:28:34.159Z,68.90
2019-02-19T20:31:03.994Z,68.90
2019-02-19T20:33:33.841Z,69.30
2019-02-19T20:36:03.748Z,69.80
2019-02-19T20:38:34.250Z,70.30
2019-02-19T20:41:04.076Z,71.00
2019-02-19T20:43:35.061Z,71.00
2019-02-19T20:46:05.520Z,70.80
2019-02-19T20:48:35.442Z,70.90
2019-02-19T20:51:06.229Z,70.90
2019-02-19T20:53:36.025Z,71.40
2019-02-19T20:56:05.786Z,71.60
2019-02-19T20:58:35.599Z,71.40
2019-02-19T21:01:06.287Z,71.10
2019-02-19T21:03:36.221Z,71.10
2019-02-19T21:06:05.988Z,71.20
2019-02-19T21:08:35.830Z,70.90
2019-02-19T21:11:05.729Z,71.00
2019-02-19T21:13:35.559Z,71.30
2019-02-19T21:16:05.309Z,71.70
2019-02-19T21:18:36.298Z,71.70
2019-02-19T21:21:06.746Z,71.70
2019-02-19T21:23:36.567Z,71.90
2019-02-19T21:26:07.139Z,71.70
2019-02-19T21:28:37.154Z,71.70
2019-02-19T21:31:07.790Z,72.10
2019-02-19T21:33:37.672Z,72.20
2019-02-19T21:36:08.192Z,72.30
2019-02-19T21:38:38.079Z,73.20
2019-02-19T21:41:07.958Z,73.20
2019-02-19T21:43:37.924Z,73.50
2019-02-19T21:46:09.362Z,73.70
2019-02-19T21:48:39.325Z,74.10
2019-02-19T21:51:09.126Z,73.80
2019-02-19T21:53:39.637Z,73.70
2019-02-19T21:56:09.745Z,73.30
2019-02-19T21:58:39.832Z,73.10
2019-02-19T22:01:10.534Z,73.00
2019-02-19T22:03:40.342Z,72.70
2019-02-19T22:06:10.395Z,72.80
2019-02-19T22:08:40.441Z,73.00
2019-02-19T22:11:10.956Z,73.10
2019-02-19T22:13:40.876Z,72.90
2019-02-19T22:16:10.729Z,72.90
2019-02-19T22:18:41.255Z,73.10
2019-02-19T22:21:12.745Z,73.20
2019-02-19T22:23:43.234Z,73.00
2019-02-19T22:26:13.226Z,73.20
2019-02-19T22:28:43.838Z,73.20
2019-02-19T22:31:14.435Z,73.30
2019-02-19T22:33:44.598Z,73.20
2019-02-19T22:36:14.417Z,74.00
2019-02-19T22:38:44.409Z,73.10
2019-02-19T22:41:14.309Z,73.20
2019-02-19T22:43:44.201Z,73.10
2019-02-19T22:46:14.017Z,73.20
2019-02-19T22:48:43.870Z,73.20
2019-02-19T22:51:13.733Z,73.70
2019-02-19T22:53:51.775Z,73.60
2019-02-19T22:56:23.217Z,73.90
2019-02-19T22:58:53.092Z,73.80
2019-02-19T23:01:41.539Z,73.90
2019-02-19T23:04:11.507Z,74.10
2019-02-19T23:06:41.343Z,74.00
2019-02-19T23:09:11.212Z,74.30
2019-02-19T23:11:41.024Z,74.50
2019-02-19T23:14:10.858Z,74.90
2019-02-19T23:16:40.694Z,75.50
2019-02-19T23:19:10.509Z,75.70
2019-02-19T23:21:40.401Z,75.90
2019-02-19T23:24:10.367Z,75.80
2019-02-19T23:26:40.385Z,75.60
2019-02-19T23:29:10.158Z,75.40
2019-02-19T23:31:40.177Z,75.40
2019-02-19T23:34:09.949Z,75.00
2019-02-19T23:36:53.215Z,75.30
2019-02-19T23:39:23.461Z,75.20
2019-02-19T23:41:53.361Z,75.40
2019-02-19T23:44:23.357Z,75.50
2019-02-19T23:46:53.182Z,75.50
2019-02-19T23:49:22.995Z,75.60
2019-02-19T23:51:52.898Z,75.50
2019-02-19T23:54:22.897Z,75.60
2019-02-19T23:56:52.793Z,75.60
2019-02-19T23:59:22.606Z,75.70
